Latest Weather Observations for Yarrawonga

IDN60801

Issued at 2:42 pm EDT Tuesday 15 October 2019 (issued every 10 minutes, with the page automatically refreshed every 10 minutes)

About weather observations | Map of weather stations | Latest weather observations for NSW | Other Formats
Station Details ID: 081124 Name: YARRAWONGA Lat: -36.03 Lon: 146.03 Height: 128.9 m
Data from the previous 72 hours. | See also: Recent months at Yarrawonga
Date/Time
EDT
Temp
°C
App
Temp
°C
Dew
Point
°C
Rel
Hum
%
Delta-T
°C
Wind Press
QNH
hPa
Press
MSL
hPa
Rain since
9am
mm
Dir  Spd
km/h
Gust
km/h
Spd
kts
Gust
kts
15/02:30pm 26.8 22.4 7.3 29 10.4 W 20 33 11 18 1010.1 1010.0 0.0
15/02:00pm 26.3 23.1 8.3 32 9.8 WSW 15 24 8 13 1010.4 1010.3 0.0
15/01:30pm 25.7 21.7 8.2 33 9.4 WSW 19 30 10 16 1010.6 1010.5 0.0
15/01:00pm 25.9 22.4 8.8 34 9.3 W 17 24 9 13 1010.7 1010.6 0.0
15/12:30pm 24.7 21.9 8.6 36 8.7 SW 13 22 7 12 1010.9 1010.8 0.0
15/12:00pm 24.4 21.6 8.4 36 8.6 W 13 22 7 12 1011.0 1010.9 0.0
15/11:30am 22.9 21.3 8.6 40 7.6 SSW 7 11 4 6 1011.1 1011.0 0.0
15/11:00am 22.1 21.0 9.9 46 6.7 SW 6 9 3 5 1011.0 1010.9 0.0
15/10:30am 20.3 18.9 8.9 48 6.0 SSW 6 11 3 6 1011.4 1011.3 0.0
15/10:00am 19.1 17.8 10.1 56 4.8 WSW 7 15 4 8 1012.0 1011.9 0.0
15/09:30am 17.1 15.8 9.8 62 3.9 SW 7 9 4 5 1011.7 1011.6 0.0
15/09:00am 15.0 13.8 10.2 73 2.5 SW 7 11 4 6 1011.6 1011.5 0.0
15/08:30am 13.2 12.0 10.2 82 1.6 SW 7 9 4 5 1011.5 1011.4 0.0
15/08:00am 11.1 9.7 9.7 91 0.7 WSW 7 11 4 6 1011.5 1011.4 0.0
15/07:30am 9.4 7.8 8.6 95 0.4 W 7 13 4 7 1011.3 1011.2 0.0
15/07:00am 7.4 5.9 6.7 95 0.3 SW 4 4 2 2 1010.7 1010.6 0.0
15/06:30am 7.8 6.3 6.9 94 0.4 WSW 4 6 2 3 1010.7 1010.6 0.0
15/06:00am 8.3 6.4 7.5 95 0.4 W 7 11 4 6 1010.6 1010.5 0.0
15/05:30am 7.3 5.4 6.9 97 0.2 SW 6 7 3 4 1010.0 1009.9 0.0
15/05:00am 7.9 7.2 6.8 93 0.5 CALM 0 0 0 0 1009.9 1009.8 0.0
15/04:30am 8.2 7.6 7.3 94 0.4 CALM 0 0 0 0 1010.0 1009.9 0.0
15/04:00am 8.4 6.6 7.3 93 0.5 SSE 6 6 3 3 1010.2 1010.1 0.0
15/03:30am 8.4 6.6 7.0 91 0.7 SE 6 7 3 4 1010.4 1010.3 0.0
15/03:00am 9.5 8.5 7.3 86 1.0 SW 2 4 1 2 1010.7 1010.6 0.0
15/02:30am 11.9 10.2 8.2 78 1.8 W 7 11 4 6 1011.1 1011.0 0.0
15/02:00am 12.2 10.7 9.0 81 1.6 E 7 11 4 6 1010.9 1010.8 0.0
15/01:30am 12.0 10.9 8.5 79 1.7 SE 4 7 2 4 1010.8 1010.7 0.0
15/01:00am 12.1 11.0 8.4 78 1.8 ESE 4 6 2 3 1010.8 1010.7 0.0
15/12:30am 12.0 10.4 8.1 77 1.9 SE 6 6 3 3 1010.7 1010.6 0.0
15/12:00am 13.4 11.8 8.0 70 2.7 SE 6 9 3 5 1010.7 1010.6 0.0
 
Date/Time
EDT
Temp
°C
App
Temp
°C
Dew
Point
°C
Rel
Hum
%
Delta-T
°C
Wind Press
QNH
hPa
Press
MSL
hPa
Rain since
9am
mm
Dir  Spd
km/h
Gust
km/h
Spd
kts
Gust
kts
14/11:30pm 13.6 12.0 8.2 70 2.7 SE 6 7 3 4 1010.8 1010.7 0.0
14/11:00pm 13.2 11.6 7.9 70 2.6 ESE 6 9 3 5 1010.8 1010.7 0.0
14/10:30pm 12.9 11.3 8.0 72 2.4 SE 6 7 3 4 1010.9 1010.8 0.0
14/10:00pm 13.6 11.8 8.0 69 2.8 SE 7 9 4 5 1010.7 1010.6 0.0
14/09:30pm 14.1 12.3 8.1 67 3.0 ESE 7 9 4 5 1010.6 1010.5 0.0
14/09:00pm 15.2 13.6 8.0 62 3.6 ESE 6 9 3 5 1010.5 1010.4 0.0
14/08:30pm 17.2 14.2 7.5 53 4.9 ESE 13 15 7 8 1010.2 1010.1 0.0
14/08:00pm 18.2 15.6 7.6 50 5.4 ESE 11 13 6 7 1010.1 1010.0 0.0
14/07:30pm 20.7 17.9 7.0 41 7.0 ESE 11 15 6 8 1009.9 1009.8 0.0
14/07:00pm 23.3 20.0 6.6 34 8.6 ESE 13 20 7 11 1009.7 1009.6 0.0
14/06:30pm 24.8 21.1 6.5 31 9.5 E 15 24 8 13 1009.7 1009.6 0.0
14/06:00pm 25.6 21.6 6.8 30 9.9 E 17 26 9 14 1009.6 1009.4 0.0
14/05:30pm 25.9 21.5 6.5 29 10.2 E 19 28 10 15 1009.8 1009.7 0.0
14/05:00pm 26.4 22.5 6.9 29 10.3 ENE 17 26 9 14 1010.0 1009.9 0.0
14/04:30pm 26.6 22.5 6.1 27 10.7 ENE 17 26 9 14 1010.2 1010.1 0.0
14/04:00pm 26.5 22.4 6.0 27 10.7 ENE 17 24 9 13 1010.5 1010.4 0.0
14/03:30pm 25.8 21.9 5.4 27 10.5 ENE 15 32 8 17 1010.8 1010.7 0.0
14/03:00pm 26.0 22.3 6.1 28 10.4 ENE 15 24 8 13 1011.2 1011.1 0.0
14/02:30pm 26.2 21.7 6.3 28 10.4 ENE 19 24 10 13 1012.0 1011.9 0.0
14/02:00pm 24.5 19.4 5.8 30 9.6 ENE 22 32 12 17 1012.5 1012.4 0.0
14/01:30pm 24.6 20.3 6.8 32 9.3 ENE 19 24 10 13 1013.1 1013.0 0.0
14/01:00pm 23.3 19.5 7.4 36 8.3 E 17 22 9 12 1013.6 1013.5 0.0
14/12:30pm 23.1 19.2 7.2 36 8.3 ENE 17 26 9 14 1014.1 1014.0 0.0
14/12:00pm 21.6 18.1 7.4 40 7.4 E 15 19 8 10 1014.6 1014.5 0.0
14/11:30am 20.1 17.3 7.1 43 6.6 ENE 11 17 6 9 1015.1 1014.9 0.0
14/11:00am 19.6 16.8 8.6 49 5.8 ENE 13 19 7 10 1015.4 1015.2 0.0
14/10:30am 18.5 16.6 9.0 54 5.0 E 9 15 5 8 1015.4 1015.2 0.0
14/10:00am 16.8 14.1 8.8 59 4.1 E 13 17 7 9 1015.3 1015.1 0.0
14/09:30am 16.0 14.0 8.5 61 3.8 ENE 9 13 5 7 1015.6 1015.4 0.0
14/09:00am 16.1 13.7 8.8 62 3.8 E 11 17 6 9 1015.2 1015.0 0.0
14/08:30am 15.0 12.2 8.7 66 3.2 E 13 17 7 9 1014.8 1014.7 0.0
14/08:00am 13.4 11.1 8.9 74 2.3 E 11 17 6 9 1014.7 1014.6 0.0
14/07:30am 12.6 10.2 8.7 77 2.0 ESE 11 17 6 9 1014.7 1014.6 0.0
14/07:00am 12.4 10.4 8.7 78 1.9 E 9 11 5 6 1014.5 1014.4 0.0
14/06:30am 12.1 10.1 8.8 80 1.7 E 9 13 5 7 1013.9 1013.8 0.0
14/06:00am 11.9 10.0 8.9 82 1.5 E 9 13 5 7 1013.7 1013.6 0.0
14/05:30am 11.8 10.3 9.0 83 1.4 E 7 9 4 5 1013.6 1013.5 0.0
14/05:00am 11.5 10.6 9.1 85 1.2 ESE 4 6 2 3 1013.6 1013.5 0.0
14/04:30am 11.9 10.6 9.1 83 1.4 E 6 7 3 4 1013.6 1013.5 0.0
14/04:00am 11.9 10.6 9.3 84 1.3 ENE 6 9 3 5 1013.7 1013.6 0.0
14/03:30am 11.9 10.4 9.1 83 1.4 ESE 7 9 4 5 1014.1 1014.0 0.0
14/03:00am 12.0 10.4 8.8 81 1.6 ESE 7 11 4 6 1014.2 1014.1 0.0
14/02:30am 12.4 10.0 8.7 78 1.9 E 11 15 6 8 1014.1 1014.0 0.0
14/02:00am 13.1 11.9 8.0 71 2.5 SE 4 6 2 3 1015.1 1014.9 0.0
14/01:30am 12.8 11.9 7.9 72 2.4 SE 2 4 1 2 1015.2 1015.0 0.0
14/01:00am 12.3 10.4 7.4 72 2.4 ESE 7 9 4 5 1015.0 1014.8 0.0
14/12:30am 12.4 10.5 7.5 72 2.4 E 7 11 4 6 1015.2 1015.0 0.0
14/12:00am 11.8 9.8 7.3 74 2.2 E 7 13 4 7 1015.5 1015.3 0.0
 
Date/Time
EDT
Temp
°C
App
Temp
°C
Dew
Point
°C
Rel
Hum
%
Delta-T
°C
Wind Press
QNH
hPa
Press
MSL
hPa
Rain since
9am
mm
Dir  Spd
km/h
Gust
km/h
Spd
kts
Gust
kts
13/11:30pm 11.3 9.4 7.4 77 1.9 E 7 9 4 5 1015.8 1015.6 0.0
13/11:00pm 11.0 9.0 7.3 78 1.8 E 7 9 4 5 1015.9 1015.7 0.0
13/10:30pm 11.7 10.0 7.4 75 2.1 E 6 7 3 4 1016.2 1016.0 0.0
13/10:00pm 12.9 10.8 8.2 73 2.3 E 9 9 5 5 1016.4 1016.3 0.0
13/09:30pm 13.8 12.1 8.4 70 2.7 ESE 7 7 4 4 1016.6 1016.5 0.0
13/09:00pm 14.7 13.0 8.2 65 3.3 E 7 9 4 5 1016.5 1016.4 0.0
13/08:30pm 15.3 12.7 7.8 61 3.8 E 11 13 6 7 1016.3 1016.1 0.0
13/08:00pm 15.2 12.0 7.0 58 4.0 E 13 17 7 9 1016.1 1015.9 0.0
13/07:30pm 16.9 15.3 8.6 58 4.3 E 7 9 4 5 1015.9 1015.7 0.0
13/07:00pm 18.6 17.0 8.6 52 5.2 E 7 9 4 5 1015.9 1015.7 0.0
13/06:30pm 21.0 18.7 5.8 37 7.6 E 7 9 4 5 1015.9 1015.7 0.0
13/06:00pm 22.6 19.8 3.2 28 9.4 E 7 13 4 7 1015.8 1015.6 0.0
13/05:30pm 22.1 19.3 3.3 29 9.1 NE 7 17 4 9 1015.8 1015.6 0.0
13/05:00pm 21.9 19.2 2.6 28 9.2 ENE 6 7 3 4 1016.0 1015.8 0.0
13/04:30pm 22.4 19.9 4.0 30 9.0 ENE 6 13 3 7 1016.1 1015.9 0.0
13/04:00pm 22.2 19.5 3.8 30 8.9 NE 7 17 4 9 1016.4 1016.3 0.0
13/03:30pm 22.3 19.3 3.9 30 9.0 ENE 9 19 5 10 1016.8 1016.7 0.0
13/03:00pm 21.3 19.0 4.8 34 8.1 NNE 6 11 3 6 1017.5 1017.4 0.0
13/02:30pm 22.5 20.2 5.0 32 8.7 NW 6 13 3 7 1017.7 1017.6 0.0
13/02:00pm 21.9 19.7 6.2 36 8.0 NE 7 17 4 9 1018.1 1018.0 0.0
13/01:30pm 20.8 18.3 6.7 40 7.2 E 9 17 5 9 1018.2 1018.1 0.0
13/01:00pm 20.5 17.6 6.5 40 7.1 NNE 11 20 6 11 1018.6 1018.5 0.0
13/12:30pm 20.0 17.1 6.7 42 6.7 NNE 11 19 6 10 1019.1 1019.0 0.0
13/12:00pm 19.7 16.6 7.4 45 6.3 NNE 13 20 7 11 1019.2 1019.1 0.0
13/11:30am 18.6 15.5 7.4 48 5.7 NE 13 22 7 12 1019.7 1019.6 0.0
13/11:00am 17.8 14.6 7.0 49 5.4 NNE 13 19 7 10 1020.0 1019.9 0.0
13/10:30am 17.1 13.7 7.7 54 4.8 NE 15 24 8 13 1020.3 1020.2 0.0
13/10:00am 15.1 12.0 7.4 60 3.8 NE 13 20 7 11 1020.5 1020.4 0.0
13/09:30am 14.1 9.8 7.2 63 3.4 NE 19 26 10 14 1020.5 1020.4 0.0
13/09:00am 13.6 9.5 8.0 69 2.8 ENE 19 24 10 13 1020.5 1020.4 0.4
13/08:30am 12.7 9.4 8.0 73 2.3 ENE 15 28 8 15 1020.3 1020.2 0.4
13/08:00am 11.4 8.1 8.1 80 1.6 ENE 15 22 8 12 1020.0 1019.9 0.4
13/07:30am 9.9 7.3 7.8 87 1.0 E 11 19 6 10 1019.7 1019.6 0.4
13/07:00am 7.4 5.0 7.1 98 0.1 E 9 17 5 9 1019.3 1019.2 0.4
13/06:30am 6.0 3.7 5.6 97 0.2 ESE 7 9 4 5 1019.4 1019.3 0.4
13/06:00am 6.1 3.4 5.5 96 0.3 ESE 9 11 5 6 1019.2 1019.1 0.4
13/05:30am 6.4 4.3 5.7 95 0.3 ESE 6 9 3 5 1019.0 1018.9 0.4
13/05:00am 7.3 4.8 6.6 95 0.3 E 9 11 5 6 1018.7 1018.6 0.4
13/04:30am 6.7 4.1 6.3 97 0.2 E 9 15 5 8 1018.7 1018.6 0.4
13/04:00am 6.8 4.6 6.4 97 0.2 E 7 11 4 6 1018.9 1018.8 0.4
13/03:30am 7.0 4.5 6.6 97 0.2 ESE 9 11 5 6 1019.1 1019.0 0.4
13/03:00am 6.9 4.7 6.3 96 0.3 E 7 9 4 5 1019.3 1019.2 0.4
13/02:30am 7.5 5.4 6.8 95 0.3 E 7 11 4 6 1019.7 1019.6 0.4
13/02:00am 7.3 4.7 6.1 92 0.5 E 9 11 5 6 1019.9 1019.8 0.4
13/01:30am 8.2 6.4 7.0 92 0.6 ESE 6 6 3 3 1020.1 1020.0 0.4
13/01:00am 8.1 6.2 6.7 91 0.6 ESE 6 7 3 4 1020.0 1019.9 0.4
13/12:30am 8.5 6.1 7.1 91 0.7 ESE 9 13 5 7 1019.5 1019.4 0.4
13/12:00am 8.0 5.2 6.8 92 0.6 E 11 13 6 7 1019.3 1019.2 0.4
 
Date/Time
EDT
Temp
°C
App
Temp
°C
Dew
Point
°C
Rel
Hum
%
Delta-T
°C
Wind Press
QNH
hPa
Press
MSL
hPa
Rain since
9am
mm
Dir  Spd
km/h
Gust
km/h
Spd
kts
Gust
kts
12/11:30pm 8.8 6.8 7.3 90 0.7 E 7 9 4 5 1019.5 1019.4 0.4
12/11:00pm 9.1 6.7 7.2 88 0.9 ESE 9 9 5 5 1019.2 1019.1 0.4
12/10:30pm 9.8 7.9 7.7 87 1.0 ESE 7 7 4 4 1019.1 1019.0 0.4
12/10:00pm 9.9 8.1 8.0 88 0.9 E 7 11 4 6 1018.7 1018.6 0.4
12/09:30pm 10.4 8.7 8.2 86 1.1 ESE 7 11 4 6 1018.3 1018.2 0.4
12/09:00pm 11.1 8.9 7.8 80 1.6 ESE 9 11 5 6 1017.8 1017.7 0.4
12/08:30pm 12.1 9.5 7.8 75 2.1 ESE 11 13 6 7 1017.3 1017.2 0.4
12/08:00pm 12.8 11.4 8.7 76 2.1 ESE 6 7 3 4 1017.1 1017.0 0.4
12/07:30pm 15.1 13.4 8.3 64 3.4 ESE 7 9 4 5 1016.7 1016.6 0.4
12/07:00pm 18.4 16.9 8.4 52 5.2 SE 6 7 3 4 1016.2 1016.0 0.4
12/06:30pm 19.8 17.6 5.5 39 7.1 SE 6 9 3 5 1016.1 1015.9 0.4
12/06:00pm 20.3 18.0 5.9 39 7.2 ESE 7 17 4 9 1015.8 1015.6 0.4
12/05:30pm 20.5 16.7 5.7 38 7.4 S 15 20 8 11 1015.4 1015.2 0.4
12/05:00pm 20.5 18.7 5.3 37 7.5 SSE 4 9 2 5 1015.6 1015.4 0.4
12/04:30pm 20.4 18.0 5.2 37 7.5 NE 7 13 4 7 1015.7 1015.5 0.4
12/04:00pm 19.6 16.6 6.0 41 6.8 SSW 11 19 6 10 1015.8 1015.6 0.4
12/03:30pm 20.4 18.2 6.4 40 7.1 NE 7 13 4 7 1015.9 1015.7 0.4
12/03:00pm 20.6 19.3 7.6 43 6.7 NE 4 7 2 4 1016.2 1016.0 0.4

Other formats

Comma delimited format used in spreadsheet applications
http://www.bom.gov.au/fwo/IDN60801/IDN60801.94862.axf

JavaScript Object Notation format (JSON) in row-major order
http://www.bom.gov.au/fwo/IDN60801/IDN60801.94862.json

Data quality

Most of these data are generated automatically and are frequently updated. Quality checks on data are not normally performed. It is possible for incorrect values to appear. Refer to information at About Latest Weather Observations and please check the disclaimer before using these data.